Portada
METAR-TAF:

METAR-TAF

Aeropuertos :

Isla de Capri, Italia

latitud: 40-33N, longitud: 014-12E, altitud: 160 m

Observación

El informe se hizo hace 1 hora y 4 minutos, a las 11:55 UTC
Viento 5 kt del oeste
Temperatura 16°C
Humedad 59%
Presión 1014 hPa
Visibilidad 10 km o más
sin nubes por debajo de 1500 m y sin presencia de cumulonimbus.

METAR: LIQC 041155Z 27005KT CAVOK 16/08 Q1014 RMK SKC QUK 2 QUL 1 W VIS MAR 20 KM VIS MIN 9999

Hora: 14:59 (12:59 UTC)


TAF: falta

Observaciones y pronósticos meteorológicos de más de 4000 aeropuertos (mensajes METAR y TAF).

Los puntos amarillos y rojos representan las estaciones disponibles.

Ponga el ratón en el punto deseado para ver el nombre de la estación.

Haga clic para ver las observaciones y los pronósticos meteorológicos.

Para cambiar el mapa : haga clic en los botones verdes con una cruz de color negro para hacer un zoom, en el botón verde con un guión para alejar o en las flechas verdes para mapas adyacentes.


METAR-TAF: